Latest Weather Observations for Lucas Heights (ANSTO)

IDN60901

Issued at 10:11 pm EDT Sunday 16 December 2018 (issued every 10 minutes, with the page automatically refreshed every 10 minutes)

About weather observations | Map of Sydney area stations | Latest observations for Sydney area | Other Formats
Station Details ID: 066023 Name: LUCAS HEIGHTS (ANSTO) Lat: -34.05 Lon: 150.98 Height: 140.0 m
Data from the previous 72 hours. | See also: Recent months for locations in New South Wales
Date/Time
EDT
Temp
°C
App
Temp
°C
Dew
Point
°C
Rel
Hum
%
Delta-T
°C
Wind Press
QNH
hPa
Press
MSL
hPa
Rain since
9am
mm
Dir  Spd
km/h
Gust
km/h
Spd
kts
Gust
kts
16/10:00pm 22.7 25.2 19.8 84 1.9 NNE 6 7 3 4 1006.5 - 0.0
16/09:45pm 22.8 25.1 19.8 83 1.9 NNE 7 15 4 8 1006.5 - 0.0
16/09:30pm 23.1 24.6 19.8 82 2.1 NE 11 19 6 10 1006.3 - 0.0
16/09:15pm 23.5 25.1 19.9 80 2.3 NNE 11 17 6 9 1006.3 - 0.0
16/09:00pm 23.7 25.6 19.8 79 2.5 N 9 15 5 8 1006.2 - 0.0
16/08:45pm 23.9 25.8 19.8 78 2.7 NNE 9 17 5 9 1006.2 - 0.0
16/08:30pm 24.1 25.5 19.6 76 2.9 NNE 11 19 6 10 1006.2 - 0.0
16/08:15pm 24.3 25.6 19.4 74 3.2 NE 11 17 6 9 1006.1 - 0.0
16/08:00pm 24.3 25.6 18.5 70 3.7 E 9 15 5 8 1006.1 - 0.0
16/07:45pm 24.4 24.5 17.5 65 4.3 SE 13 19 7 10 1005.9 - 0.0
16/07:30pm 24.6 25.9 17.6 65 4.4 SSE 7 15 4 8 1005.8 - 0.0
16/07:15pm 24.6 25.2 17.6 65 4.4 S 11 24 6 13 1005.6 - 0.0
16/07:00pm 25.6 23.9 17.3 60 5.2 SW 22 33 12 18 1005.5 - 0.0
16/06:45pm 26.1 26.3 16.8 56 5.8 NNE 11 32 6 17 1004.6 - 0.0
16/06:30pm 26.6 24.9 17.1 56 6.0 NE 22 41 12 22 1004.1 - 0.0
16/06:15pm 26.9 25.6 18.1 58 5.6 NNE 22 44 12 24 1004.1 - 0.0
16/06:00pm 26.9 25.6 19.0 62 5.1 NNE 24 41 13 22 1003.9 - 0.0
16/05:45pm 26.7 26.4 19.5 64 4.7 NNE 20 35 11 19 1003.8 - 0.0
16/05:30pm 26.7 26.4 19.5 64 4.7 NNE 20 37 11 20 1004.0 - 0.0
16/05:15pm 26.9 25.3 20.0 66 4.5 NNE 28 50 15 27 1004.1 - 0.0
16/05:00pm 26.7 25.4 20.7 69 4.0 NE 28 50 15 27 1004.2 - 0.0
16/04:45pm 27.7 27.2 21.4 68 4.2 NE 26 39 14 21 1004.3 - 0.0
16/04:30pm 28.2 27.7 21.4 66 4.6 ENE 26 37 14 20 1004.1 - 0.0
16/04:15pm 28.6 28.4 21.3 64 4.9 ENE 24 33 13 18 1004.0 - 0.0
16/04:00pm 29.0 29.1 21.1 62 5.3 ENE 22 32 12 17 1004.2 - 0.0
16/03:45pm 28.7 28.1 20.4 60 5.5 ENE 24 33 13 18 1004.5 - 0.0
16/03:30pm 29.3 28.1 20.0 57 6.1 NE 26 37 14 20 1004.6 - 0.0
16/03:15pm 29.5 27.6 19.3 54 6.7 NE 28 43 15 23 1004.8 - 0.0
16/03:00pm 30.0 27.6 19.2 52 7.1 NE 30 43 16 23 1004.8 - 0.0
16/02:45pm 30.3 28.6 20.6 56 6.5 NE 30 41 16 22 1004.9 - 0.0
16/02:30pm 30.4 30.0 21.0 57 6.3 ENE 24 37 13 20 1004.9 - 0.0
16/02:15pm 30.6 30.0 20.5 54 6.7 NE 24 32 13 17 1005.0 - 0.0
16/02:00pm 30.7 29.6 20.3 53 6.9 ENE 26 35 14 19 1005.0 - 0.0
16/01:45pm 30.3 29.7 20.4 55 6.6 ENE 24 33 13 18 1005.2 - 0.0
16/01:30pm 30.1 30.1 20.9 57 6.2 ENE 22 33 12 18 1005.4 - 0.0
16/01:15pm 29.8 29.8 21.0 59 5.9 ENE 22 33 12 18 1005.7 - 0.0
16/01:00pm 29.6 29.9 20.7 58 5.9 NE 20 33 11 18 1005.9 - 0.0
16/12:45pm 30.5 30.0 17.8 46 8.2 NNE 17 26 9 14 1006.0 - 0.0
16/12:30pm 30.1 29.9 16.6 44 8.5 N 13 20 7 11 1006.2 - 0.0
16/12:15pm 29.5 29.6 17.4 48 7.7 NNE 13 26 7 14 1006.5 - 0.0
16/12:00pm 29.3 30.2 18.5 52 7.0 N 11 19 6 10 1006.6 - 0.0
16/11:45am 29.0 31.0 19.2 55 6.4 NNW 7 15 4 8 1006.6 - 0.0
16/11:30am 28.3 29.9 19.1 57 6.0 NNW 9 17 5 9 1006.8 - 0.0
16/11:15am 27.8 29.7 19.7 61 5.3 N 9 15 5 8 1006.9 - 0.0
16/11:00am 27.5 30.0 20.2 64 4.8 NW 7 15 4 8 1007.1 - 0.0
16/10:45am 26.8 29.4 20.4 68 4.2 NW 7 15 4 8 1007.2 - 0.0
16/10:30am 26.1 28.3 20.5 71 3.7 NW 9 15 5 8 1007.5 - 0.0
16/10:15am 25.6 27.5 20.6 74 3.3 NW 11 19 6 10 1007.6 - 0.0
16/10:00am 25.0 27.3 20.7 77 2.8 NW 9 15 5 8 1007.6 - 0.0
16/09:45am 24.6 27.4 20.9 80 2.4 NW 7 15 4 8 1007.7 - 0.0
16/09:30am 23.8 25.6 20.4 81 2.2 NW 11 19 6 10 1007.8 - 0.0
16/09:15am 23.5 25.4 20.5 83 2.0 N 11 19 6 10 1008.0 - 0.0
16/09:00am 23.0 24.9 20.5 86 1.6 NNW 11 20 6 11 1007.9 - 8.0
16/08:45am 22.5 23.6 17.2 72 3.3 NNW 7 15 4 8 1007.9 - 8.0
16/08:30am 22.0 21.6 12.5 54 5.4 NNW 6 9 3 5 1007.9 - 8.0
16/08:15am 21.4 23.9 20.2 93 0.8 N 7 11 4 6 1007.9 - 8.0
16/08:00am 21.2 23.6 20.0 93 0.8 NNW 7 13 4 7 1007.8 - 8.0
16/07:45am 21.0 23.5 19.9 93 0.7 N 6 11 3 6 1007.5 - 8.0
16/07:30am 20.9 22.8 19.7 93 0.8 N 9 13 5 7 1007.3 - 8.0
16/07:15am 20.8 23.0 19.7 93 0.7 N 7 11 4 6 1007.0 - 8.0
16/07:00am 20.6 22.3 19.4 93 0.8 NNE 9 11 5 6 1006.7 - 8.0
16/06:45am 20.4 22.4 19.2 93 0.8 NNE 7 9 4 5 1006.5 - 8.0
16/06:30am 20.4 23.4 19.2 93 0.8 NE 2 6 1 3 1006.4 - 8.0
16/06:15am 20.4 23.0 19.2 93 0.8 W 4 6 2 3 1006.3 - 8.0
16/06:00am 20.5 23.1 19.3 93 0.8 W 4 7 2 4 1006.3 - 8.0
16/05:45am 20.2 22.3 19.0 93 0.8 W 6 7 3 4 1006.3 - 8.0
16/05:30am 20.2 22.7 19.0 93 0.8 WNW 4 6 2 3 1006.1 - 8.0
16/05:15am 20.2 22.7 19.0 93 0.8 WNW 4 6 2 3 1005.7 - 8.0
16/05:00am 20.4 22.9 19.1 92 0.8 WNW 4 6 2 3 1005.8 - 8.0
16/04:45am 20.5 22.7 19.2 92 0.8 NNW 6 7 3 4 1005.9 - 8.0
16/04:30am 20.9 22.0 19.6 92 0.8 NW 13 17 7 9 1005.6 - 8.0
16/04:15am 20.7 21.6 19.3 92 0.9 NNW 13 17 7 9 1005.4 - 8.0
16/04:00am 20.8 22.5 19.4 92 0.9 NNW 9 13 5 7 1005.2 - 8.0
16/03:45am 20.9 22.6 19.4 91 1.0 NW 9 13 5 7 1005.1 - 8.0
16/03:30am 20.9 23.1 19.3 90 1.0 N 6 7 3 4 1005.2 - 8.0
16/03:15am 21.0 22.7 19.4 90 1.0 NNE 9 11 5 6 1005.5 - 8.0
16/03:00am 21.1 22.4 19.4 90 1.1 NNE 11 15 6 8 1005.7 - 8.0
16/02:45am 21.2 22.5 19.4 89 1.1 NNE 11 15 6 8 1005.7 - 8.0
16/02:30am 21.3 22.6 19.4 89 1.2 NNE 11 15 6 8 1005.8 - 8.0
16/02:15am 21.4 22.8 19.5 89 1.2 NNE 11 15 6 8 1005.7 - 8.0
16/02:00am 21.4 22.7 19.4 88 1.3 N 11 15 6 8 1005.8 - 8.0
16/01:45am 21.8 23.6 19.5 87 1.5 N 9 15 5 8 1005.8 - 8.0
16/01:30am 22.2 24.1 19.8 86 1.5 NNW 9 17 5 9 1005.9 - 8.0
16/01:15am 22.1 23.5 19.6 86 1.6 NNW 11 17 6 9 1006.1 - 8.0
16/01:00am 22.1 24.1 20.0 88 1.4 NW 9 11 5 6 1006.3 - 8.0
16/12:45am 21.8 24.4 20.0 89 1.2 NW 6 9 3 5 1006.5 - 8.0
16/12:30am 21.6 23.9 19.8 89 1.2 NW 7 11 4 6 1006.6 - 8.0
16/12:15am 21.4 24.2 19.6 89 1.2 NW 4 11 2 6 1006.4 - 8.0
16/12:00am 21.5 24.3 19.6 89 1.2 NW 4 6 2 3 1006.5 - 8.0
 
Date/Time
EDT
Temp
°C
App
Temp
°C
Dew
Point
°C
Rel
Hum
%
Delta-T
°C
Wind Press
QNH
hPa
Press
MSL
hPa
Rain since
9am
mm
Dir  Spd
km/h
Gust
km/h
Spd
kts
Gust
kts
15/11:45pm 21.5 23.9 19.6 89 1.2 NW 6 11 3 6 1006.5 - 8.0
15/11:30pm 21.3 23.1 19.5 89 1.2 NW 9 11 5 6 1006.6 - 8.0
15/11:15pm 21.3 23.1 19.5 89 1.2 NW 9 11 5 6 1006.5 - 8.0
15/11:00pm 21.4 23.2 19.6 89 1.2 N 9 15 5 8 1006.4 - 8.0
15/10:45pm 21.4 22.8 19.6 89 1.2 N 11 19 6 10 1006.5 - 8.0
15/10:30pm 21.2 22.2 19.5 90 1.1 N 13 20 7 11 1006.6 - 8.0
15/10:15pm 21.2 22.3 19.6 90 1.0 NNE 13 19 7 10 1006.6 - 8.0
15/10:00pm 21.2 22.3 19.6 90 1.0 N 13 20 7 11 1006.4 - 8.0
15/09:45pm 21.1 22.1 19.5 90 1.0 N 13 19 7 10 1006.4 - 8.0
15/09:30pm 21.1 22.4 19.3 89 1.1 - 11 15 6 8 1006.1 - 8.0
15/09:15pm 21.2 22.1 19.3 89 1.2 N 13 17 7 9 1006.1 - 8.0
15/09:00pm 21.2 22.4 19.1 88 1.3 N 11 15 6 8 1006.1 - 8.0
15/08:45pm 21.2 22.7 19.0 87 1.4 N 9 15 5 8 1006.0 - 8.0
15/08:30pm 21.5 20.0 19.4 88 1.3 NNE 26 61 14 33 1006.1 - 8.0
15/08:15pm 22.6 21.8 20.9 90 1.1 NNE 26 44 14 24 1005.8 - 8.0
15/08:00pm 22.5 22.4 20.8 90 1.1 NNE 22 35 12 19 1005.6 - 8.0
15/07:45pm 22.1 22.3 20.2 89 1.2 NNE 19 37 10 20 1005.5 - 8.0
15/07:30pm 21.7 22.0 19.5 87 1.4 NE 17 28 9 15 1005.5 - 8.0
15/07:15pm 21.4 21.8 18.9 86 1.6 NE 15 22 8 12 1005.5 - 8.0
15/07:00pm 21.8 24.0 19.3 86 1.6 E 6 11 3 6 1004.9 - 8.0
15/06:45pm 21.3 24.3 19.2 88 1.3 SE 2 7 1 4 1004.2 - 8.0
15/06:30pm 20.7 22.2 18.9 89 1.1 SW 9 15 5 8 1003.9 - 8.0
15/06:15pm 19.8 20.9 18.0 89 1.1 W 9 13 5 7 1004.1 - 8.0
15/06:00pm 19.4 19.1 17.4 88 1.2 - 15 33 8 18 1004.9 - 7.8
15/05:45pm 21.4 16.8 18.8 85 1.6 N 41 83 22 45 1005.7 - 6.8
15/05:30pm 23.1 22.5 21.3 90 1.2 NE 26 37 14 20 1004.0 - 2.5
15/05:15pm 23.0 23.5 20.9 88 1.4 NE 19 30 10 16 1003.1 - 2.5
15/05:00pm 24.3 22.3 21.1 82 2.1 NNE 33 54 18 29 1003.4 - 1.5
15/04:45pm 26.0 26.1 21.8 77 2.8 ENE 24 35 13 19 1002.9 - 0.0
15/04:30pm 26.5 27.4 22.0 76 3.0 ENE 20 32 11 17 1002.8 - 0.0
15/04:15pm 26.5 26.2 21.9 76 3.1 ENE 26 37 14 20 1003.2 - 0.0
15/04:00pm 26.5 26.7 22.1 77 3.0 E 24 33 13 18 1003.3 - 0.0
15/03:45pm 26.8 27.1 22.2 76 3.1 ENE 24 35 13 19 1004.0 - 0.0
15/03:30pm 26.9 28.3 22.5 77 3.0 ENE 19 32 10 17 1004.0 - 0.0
15/03:15pm 26.7 28.3 22.2 76 3.0 ENE 17 28 9 15 1004.1 - 0.0
15/03:00pm 26.9 27.7 22.4 76 3.0 ENE 22 30 12 16 1004.5 - 0.0
15/02:45pm 27.0 28.1 21.9 73 3.4 ENE 19 28 10 15 1004.5 - 0.0
15/02:30pm 26.7 27.0 21.5 73 3.5 ENE 22 37 12 20 1004.7 - 0.0
15/02:15pm 27.9 28.4 22.0 70 4.0 ENE 22 33 12 18 1004.9 - 0.0
15/02:00pm 27.8 29.4 22.2 71 3.8 ENE 17 24 9 13 1005.1 - 0.0
15/01:45pm 27.3 29.9 22.0 73 3.6 E 11 19 6 10 1005.4 - 0.0
15/01:30pm 26.9 29.9 21.9 74 3.4 ENE 9 19 5 10 1005.5 - 0.0
15/01:15pm 26.9 29.0 21.7 73 3.5 NE 13 20 7 11 1005.7 - 0.0
15/01:00pm 27.5 29.5 22.2 73 3.6 ENE 15 24 8 13 1005.8 - 0.0
15/12:45pm 27.6 29.4 21.8 70 3.9 NE 15 22 8 12 1005.9 - 0.0
15/12:30pm 27.0 29.8 21.5 72 3.7 ENE 9 17 5 9 1005.9 - 0.0
15/12:15pm 27.1 30.2 21.4 71 3.8 NE 7 13 4 7 1006.2 - 0.0
15/12:00pm 26.4 28.7 20.6 70 3.8 N 9 17 5 9 1006.8 - 0.0
15/11:45am 26.6 28.4 20.4 69 4.1 N 11 19 6 10 1006.9 - 0.0
15/11:30am 26.9 28.4 19.8 65 4.6 NE 11 19 6 10 1006.9 - 0.0
15/11:15am 26.2 29.3 21.5 75 3.1 NE 7 17 4 9 1006.9 - 0.0
15/11:00am 25.5 28.5 21.3 77 2.8 ENE 7 11 4 6 1007.1 - 0.0
15/10:45am 25.0 28.2 21.2 79 2.5 N 6 11 3 6 1007.3 - 0.0
15/10:30am 24.5 27.5 20.8 80 2.4 N 6 11 3 6 1007.3 - 0.0
15/10:15am 24.3 27.4 21.1 82 2.1 N 6 11 3 6 1007.4 - 0.0
15/10:00am 24.2 27.0 20.9 82 2.2 N 7 11 4 6 1007.3 - 0.0
15/09:45am 24.1 26.8 21.4 85 1.8 NNE 9 15 5 8 1007.3 - 0.0
15/09:30am 24.0 26.1 20.2 79 2.5 NNE 9 17 5 9 1007.3 - 0.0
15/09:15am 23.0 26.7 21.4 91 1.1 NNE 4 11 2 6 1007.4 - 0.0
15/09:00am 22.4 24.6 19.6 84 1.8 NE 7 11 4 6 1007.4 - 12.3
15/08:45am 22.2 24.0 18.8 81 2.2 NE 7 11 4 6 1007.2 - 12.3
15/08:30am 21.9 25.0 21.0 95 0.6 NE 6 9 3 5 1007.1 - 12.3
15/08:15am 21.8 24.6 20.8 94 0.7 NE 7 9 4 5 1007.0 - 12.3
15/08:00am 21.8 24.8 20.8 94 0.7 ENE 6 9 3 5 1006.8 - 12.3
15/07:45am 21.5 24.3 20.5 94 0.6 E 6 7 3 4 1006.4 - 12.3
15/07:30am 21.2 24.3 20.3 95 0.6 E 4 6 2 3 1006.1 - 12.3
15/07:15am 21.0 24.0 20.0 94 0.6 E 4 6 2 3 1005.9 - 12.3
15/07:00am 20.8 24.1 19.9 95 0.6 E 2 6 1 3 1005.9 - 12.3
15/06:45am 20.7 23.2 19.8 95 0.6 E 6 7 3 4 1005.6 - 12.3
15/06:30am 20.6 23.4 19.7 95 0.6 E 4 7 2 4 1005.4 - 12.3
15/06:15am 20.6 23.0 19.6 94 0.6 E 6 7 3 4 1005.1 - 12.3
15/06:00am 20.5 22.8 19.5 94 0.6 ESE 6 7 3 4 1004.9 - 12.3
15/05:45am 20.5 22.8 19.5 94 0.6 ESE 6 7 3 4 1004.7 - 12.3
15/05:30am 20.5 22.8 19.5 94 0.6 ESE 6 7 3 4 1004.7 - 12.3
15/05:15am 20.6 23.4 19.6 94 0.6 SE 4 6 2 3 1004.6 - 12.3
15/05:00am 20.6 23.4 19.6 94 0.6 SE 4 6 2 3 1004.5 - 12.3
15/04:45am 20.7 23.5 19.7 94 0.6 ESE 4 6 2 3 1004.5 - 12.3
15/04:30am 20.7 23.1 19.6 93 0.7 E 6 7 3 4 1004.3 - 12.3
15/04:15am 20.7 23.5 19.7 94 0.6 ESE 4 7 2 4 1004.2 - 12.3
15/04:00am 20.7 23.1 19.6 93 0.7 ESE 6 7 3 4 1004.0 - 12.3
15/03:45am 20.7 23.1 19.7 94 0.6 ESE 6 7 3 4 1004.0 - 12.3
15/03:30am 20.8 23.3 19.8 94 0.6 E 6 7 3 4 1004.1 - 12.3
15/03:15am 20.8 23.3 19.8 94 0.6 E 6 9 3 5 1004.1 - 12.3
15/03:00am 20.7 23.5 19.7 94 0.6 E 4 6 2 3 1004.1 - 12.3
15/02:45am 20.7 23.1 19.7 94 0.6 ENE 6 7 3 4 1004.2 - 12.3
15/02:30am 20.7 23.1 19.6 93 0.7 ENE 6 7 3 4 1004.1 - 12.3
15/02:15am 20.7 23.1 19.7 94 0.6 ENE 6 7 3 4 1004.0 - 12.2
15/02:00am 20.6 23.4 19.6 94 0.6 ENE 4 7 2 4 1004.0 - 12.2
15/01:45am 20.6 23.4 19.6 94 0.6 E 4 6 2 3 1004.2 - 12.2
15/01:30am 20.5 22.8 19.5 94 0.6 ESE 6 7 3 4 1004.3 - 12.2
15/01:15am 20.2 22.7 19.0 93 0.8 ESE 4 6 2 3 1004.3 - 12.2
15/01:00am 20.5 22.8 19.4 93 0.7 ESE 6 11 3 6 1004.5 - 12.2
15/12:45am 20.6 22.8 19.5 93 0.7 E 7 9 4 5 1004.8 - 12.2
15/12:30am 20.7 23.1 19.6 93 0.7 E 6 11 3 6 1004.9 - 12.2
15/12:15am 20.6 22.4 19.6 94 0.6 E 9 15 5 8 1004.9 - 12.2
15/12:00am 20.6 22.4 19.5 93 0.7 E 9 15 5 8 1005.3 - 12.2
 
Date/Time
EDT
Temp
°C
App
Temp
°C
Dew
Point
°C
Rel
Hum
%
Delta-T
°C
Wind Press
QNH
hPa
Press
MSL
hPa
Rain since
9am
mm
Dir  Spd
km/h
Gust
km/h
Spd
kts
Gust
kts
14/11:45pm 20.5 22.3 19.5 94 0.6 SE 9 11 5 6 1005.2 - 12.2
14/11:30pm 20.4 22.1 19.4 94 0.6 SSE 9 11 5 6 1004.9 - 12.2
14/11:15pm 20.4 22.1 19.4 94 0.6 SSE 9 11 5 6 1005.0 - 12.2
14/11:00pm 20.5 22.6 19.4 93 0.7 SSE 7 9 4 5 1005.3 - 12.2
14/10:45pm 20.5 22.2 19.4 93 0.7 SSE 9 11 5 6 1005.5 - 12.2
14/10:30pm 20.5 21.9 19.5 94 0.6 SSE 11 13 6 7 1005.4 - 12.2
14/10:15pm 20.6 22.4 19.5 93 0.7 SE 9 15 5 8 1005.7 - 12.2
14/10:00pm 20.5 21.9 19.5 94 0.6 SSE 11 15 6 8 1005.6 - 12.2
14/09:45pm 20.5 22.2 19.4 93 0.7 SSE 9 15 5 8 1005.5 - 12.2
14/09:30pm 20.4 21.4 19.4 94 0.6 SSE 13 20 7 11 1005.2 - 12.2
14/09:15pm 20.4 20.9 19.3 93 0.7 SE 15 20 8 11 1005.1 - 12.2
14/09:00pm 20.4 20.9 19.3 93 0.7 SSE 15 20 8 11 1004.9 - 12.2
14/08:45pm 20.4 20.9 19.3 93 0.7 SSE 15 20 8 11 1004.9 - 12.2
14/08:30pm 20.4 21.7 19.3 93 0.7 SSE 11 19 6 10 1004.8 - 12.2
14/08:15pm 20.4 21.7 19.3 93 0.7 SE 11 20 6 11 1004.5 - 12.2
14/08:00pm 20.3 20.8 19.2 93 0.7 SSE 15 20 8 11 1004.2 - 12.2
14/07:45pm 20.3 20.7 19.1 93 0.8 SE 15 20 8 11 1004.1 - 12.2
14/07:30pm 20.4 20.9 19.2 93 0.8 SSE 15 24 8 13 1003.9 - 12.2
14/07:15pm 20.5 21.0 19.2 92 0.8 SE 15 24 8 13 1003.9 - 12.2
14/07:00pm 20.5 20.3 19.3 93 0.8 SSE 19 24 10 13 1003.5 - 12.2
14/06:45pm 20.7 21.3 19.4 92 0.8 SE 15 24 8 13 1003.4 - 12.2
14/06:30pm 20.5 21.0 19.2 92 0.8 SSE 15 24 8 13 1003.1 - 12.2
14/06:15pm 20.3 19.9 19.0 92 0.8 SSE 19 24 10 13 1003.1 - 12.2
14/06:00pm 20.1 20.5 18.9 93 0.8 SSE 15 20 8 11 1003.3 - 12.2
14/05:45pm 19.8 20.0 18.6 93 0.8 SSE 15 22 8 12 1003.3 - 12.0
14/05:30pm 19.7 19.1 18.4 92 0.8 SSE 19 28 10 15 1003.1 - 11.8
14/05:15pm 19.9 19.3 18.5 92 0.9 SE 19 28 10 15 1003.3 - 11.4
14/05:00pm 20.3 19.9 18.8 91 0.9 E 19 28 10 15 1003.5 - 11.2
14/04:45pm 20.8 22.5 19.3 91 1.0 E 9 20 5 11 1003.7 - 10.4
14/04:30pm 20.9 21.5 19.4 91 1.0 ESE 15 22 8 12 1002.7 - 9.1
14/04:15pm 21.1 22.2 19.7 92 0.9 SE 13 24 7 13 1002.9 - 9.1
14/04:00pm 21.2 22.6 19.6 90 1.0 SW 11 19 6 10 1003.4 - 8.9
14/03:45pm 21.4 23.2 19.6 89 1.2 SSW 9 15 5 8 1003.3 - 7.6
14/03:30pm 21.8 23.4 20.0 89 1.2 WSW 11 17 6 9 1003.2 - 6.1
14/03:15pm 21.9 24.5 20.1 89 1.2 SW 6 7 3 4 1003.0 - 5.9
14/03:00pm 21.9 24.3 20.0 89 1.2 SW 7 11 4 6 1002.8 - 5.9
14/02:45pm 22.2 24.7 20.3 89 1.2 S 7 11 4 6 1002.5 - 5.9
14/02:30pm 21.9 23.7 19.6 87 1.5 SSE 9 22 5 12 1002.5 - 5.9
14/02:15pm 23.6 24.9 20.2 81 2.2 WNW 13 32 7 17 1003.0 - 5.3
14/02:00pm 24.4 26.9 20.3 78 2.7 NW 7 11 4 6 1002.9 - 3.4
14/01:45pm 25.0 27.5 20.3 75 3.1 WNW 7 11 4 6 1002.8 - 3.4
14/01:30pm 25.0 28.0 20.8 77 2.8 WNW 6 11 3 6 1002.7 - 3.4
14/01:15pm 24.6 27.5 21.1 81 2.3 W 7 15 4 8 1002.8 - 3.4
14/01:00pm 23.7 27.4 21.5 87 1.5 SSW 4 9 2 5 1002.8 - 3.4
14/12:45pm 22.5 24.9 20.9 91 1.0 SW 9 15 5 8 1002.9 - 3.4
14/12:30pm 21.8 22.2 19.9 89 1.2 W 17 26 9 14 1003.4 - 3.4
14/12:15pm 22.2 24.4 20.4 89 1.2 WNW 9 19 5 10 1003.5 - 3.0
14/12:00pm 21.9 24.5 20.0 89 1.2 WNW 6 15 3 8 1003.2 - 3.0
14/11:45am 22.1 25.0 19.8 87 1.5 N 4 15 2 8 1003.2 - 1.0
14/11:30am 22.4 25.6 19.7 85 1.7 NNE 2 6 1 3 1003.2 - 0.4
14/11:15am 22.6 25.0 19.7 84 1.9 N 6 7 3 4 1003.2 - 0.0
14/11:00am 22.9 25.1 19.7 82 2.1 NE 7 11 4 6 1002.8 - 0.0
14/10:45am 23.3 25.3 19.9 81 2.2 ENE 9 13 5 7 1002.4 - 0.0
14/10:30am 23.1 25.6 19.8 82 2.1 E 6 11 3 6 1002.4 - 0.0
14/10:15am 22.9 25.4 19.8 83 2.0 ENE 6 11 3 6 1002.4 - 0.0
14/10:00am 22.5 25.1 20.1 86 1.6 E 6 9 3 5 1002.6 - 0.0
14/09:45am 21.9 24.8 19.9 88 1.3 NE 4 7 2 4 1002.8 - 0.0
14/09:30am 21.8 24.8 20.0 89 1.2 E 4 6 2 3 1003.1 - 0.0
14/09:15am 21.3 24.1 19.7 91 1.0 ESE 4 7 2 4 1002.9 - 0.0
14/09:00am 21.0 23.8 19.6 92 0.9 SSE 4 7 2 4 1002.5 - 44.3
14/08:45am 20.9 23.1 19.6 92 0.8 SE 7 11 4 6 1002.0 - 44.3
14/08:30am 20.8 22.2 19.5 92 0.8 SE 11 17 6 9 1001.7 - 44.3
14/08:15am 20.9 22.8 19.7 93 0.8 SSE 9 15 5 8 1001.6 - 44.3
14/08:00am 20.4 22.6 19.1 92 0.8 SSE 6 7 3 4 1001.9 - 44.3
14/07:45am 20.0 21.9 18.5 91 0.9 SSE 6 7 3 4 1001.7 - 44.3
14/07:30am 19.8 21.6 18.7 93 0.7 SSE 7 11 4 6 1001.6 - 44.3
14/07:15am 19.7 21.4 18.6 93 0.7 S 7 9 4 5 1001.5 - 44.3
14/07:00am 19.6 20.9 18.5 93 0.7 SSE 9 13 5 7 1001.3 - 44.3
14/06:45am 19.5 20.8 18.5 94 0.6 SSE 9 13 5 7 1001.2 - 44.3
14/06:30am 19.4 20.3 18.4 94 0.6 SSE 11 15 6 8 1001.0 - 44.3
14/06:15am 19.4 20.3 18.4 94 0.6 SSE 11 15 6 8 1000.9 - 44.3
14/06:00am 19.4 20.6 18.3 93 0.7 SSE 9 11 5 6 1001.0 - 44.3
14/05:45am 19.4 21.0 18.3 93 0.7 SSE 7 11 4 6 1000.9 - 44.3
14/05:30am 19.3 20.9 18.2 93 0.7 S 7 11 4 6 1000.5 - 44.3
14/05:15am 19.3 20.2 18.3 94 0.6 SSE 11 17 6 9 1000.1 - 44.3
14/05:00am 19.4 20.3 18.3 93 0.7 SSE 11 17 6 9 999.9 - 44.3
14/04:45am 19.4 20.6 18.3 93 0.7 SE 9 19 5 10 999.7 - 44.3
14/04:30am 19.4 19.5 18.3 93 0.7 SE 15 22 8 12 999.4 - 44.3
14/04:15am 19.3 19.0 18.3 94 0.6 SE 17 22 9 12 999.5 - 44.3
14/04:00am 19.4 20.3 18.3 93 0.7 SE 11 15 6 8 1000.0 - 44.3
14/03:45am 19.3 20.5 18.2 93 0.7 SE 9 11 5 6 1000.3 - 44.3
14/03:30am 19.2 20.0 18.1 93 0.7 ESE 11 19 6 10 1000.2 - 44.3
14/03:15am 19.1 19.4 18.0 93 0.7 ESE 13 15 7 8 1000.0 - 44.3
14/03:00am 19.1 19.8 18.0 93 0.7 ESE 11 15 6 8 1000.2 - 44.3
14/02:45am 19.0 20.4 17.9 93 0.7 ESE 7 11 4 6 1000.4 - 44.3
14/02:30am 18.9 19.9 17.8 93 0.7 SE 9 13 5 7 1000.0 - 44.3
14/02:15am 18.7 19.6 17.6 93 0.7 ESE 9 15 5 8 999.9 - 44.3
14/02:00am 18.4 18.4 17.3 93 0.7 ESE 13 20 7 11 999.7 - 44.3
14/01:45am 18.1 18.4 16.9 93 0.7 SE 11 15 6 8 999.8 - 44.3
14/01:30am 18.1 18.7 16.9 93 0.7 SE 9 11 5 6 1000.0 - 44.3
14/01:15am 18.1 19.3 16.8 92 0.8 ESE 6 7 3 4 1000.3 - 44.3
14/01:00am 18.3 19.6 17.1 93 0.7 E 6 7 3 4 1000.3 - 44.3
14/12:45am 18.3 19.6 17.0 92 0.8 E 6 7 3 4 1000.6 - 44.3
14/12:30am 18.2 19.5 17.0 93 0.7 ENE 6 9 3 5 1000.6 - 44.3
14/12:15am 18.1 19.1 16.9 93 0.7 NE 7 9 4 5 1000.7 - 44.3
14/12:00am 18.1 19.1 16.8 92 0.8 N 7 11 4 6 1000.7 - 44.3
 
Date/Time
EDT
Temp
°C
App
Temp
°C
Dew
Point
°C
Rel
Hum
%
Delta-T
°C
Wind Press
QNH
hPa
Press
MSL
hPa
Rain since
9am
mm
Dir  Spd
km/h
Gust
km/h
Spd
kts
Gust
kts
13/11:45pm 18.3 19.3 16.9 91 0.8 ENE 7 11 4 6 1000.4 - 44.3
13/11:30pm 18.2 19.2 16.9 92 0.8 E 7 9 4 5 1000.2 - 44.3
13/11:15pm 18.4 20.1 17.1 92 0.8 ESE 4 11 2 6 1000.2 - 44.3
13/11:00pm 18.6 19.0 17.3 92 0.8 SSE 11 19 6 10 1000.2 - 44.3
13/10:45pm 18.5 18.9 17.2 92 0.8 S 11 19 6 10 1000.4 - 44.3
13/10:30pm 18.6 18.3 17.3 92 0.8 SSE 15 19 8 10 1000.2 - 44.3
13/10:15pm 18.5 18.2 17.3 93 0.7 SSE 15 19 8 10 1000.1 - 44.3

Latest Capital City Observations: Canberra | Sydney | Melbourne | Brisbane | Adelaide | Perth | Hobart | Darwin

Other Formats:

Comma delimited format used in spreadsheet applications
http://www.bom.gov.au/fwo/IDN60901/IDN60901.95757.axf

JavaScript Object Notation format (JSON) in row-major order
http://www.bom.gov.au/fwo/IDN60901/IDN60901.95757.json